Time;durP1;ratioP1;P1;durP2;ratioP2;P2;SDS_P1;SDS_P2;PMS_P1;PMS_P2;Temp;Humidity;BMP_temperature;BMP_pressure;BME280_temperature;BME280_humidity;BME280_pressure;Samples;Min_cycle;Max_cycle;Signal;HPM_P1;HPM_P2
2021/07/26 00:00:58;;;;;;;11.40;8.70;;;;;;;17.61;100.00;100431.34;4991858;28;20049;-81
2021/07/26 00:03:24;;;;;;;10.73;7.47;;;;;;;17.55;100.00;100433.03;4991821;28;20113;-82
2021/07/26 00:05:53;;;;;;;10.77;8.13;;;;;;;17.56;100.00;100429.25;4991045;28;20460;-82
2021/07/26 00:08:18;;;;;;;10.88;7.47;;;;;;;17.56;100.00;100423.00;4991632;28;20056;-91
2021/07/26 00:10:44;;;;;;;11.02;8.35;;;;;;;17.55;100.00;100427.63;4988050;28;20185;-82
2021/07/26 00:13:09;;;;;;;9.70;7.53;;;;;;;17.55;100.00;100424.03;4988229;28;20547;-83
2021/07/26 00:15:34;;;;;;;10.18;8.15;;;;;;;17.49;100.00;100430.34;4990826;28;20112;-82
2021/07/26 00:18:08;;;;;;;10.05;7.72;;;;;;;17.50;100.00;100418.47;4992740;28;20559;-82
2021/07/26 00:20:33;;;;;;;10.77;7.70;;;;;;;17.46;100.00;100422.66;4990593;28;20053;-91
2021/07/26 00:22:58;;;;;;;10.30;7.90;;;;;;;17.46;100.00;100423.47;4991374;28;20129;-82
2021/07/26 00:25:24;;;;;;;12.27;8.57;;;;;;;17.44;100.00;100416.63;4991687;28;20070;-82
2021/07/26 00:27:49;;;;;;;10.90;7.95;;;;;;;17.45;100.00;100421.00;4990885;28;20082;-82
2021/07/26 00:30:14;;;;;;;9.98;7.97;;;;;;;17.47;100.00;100416.19;4992651;28;20046;-81
2021/07/26 00:32:40;;;;;;;11.27;7.88;;;;;;;17.37;100.00;100419.38;4992246;28;20370;-82
2021/07/26 00:35:05;;;;;;;10.85;8.88;;;;;;;17.36;100.00;100417.72;4991618;28;20137;-84
2021/07/26 00:37:31;;;;;;;11.60;8.50;;;;;;;17.31;100.00;100415.63;4974664;28;20121;-82
2021/07/26 00:39:57;;;;;;;10.68;7.60;;;;;;;17.30;100.00;100414.00;4992480;28;20042;-81
2021/07/26 00:42:22;;;;;;;10.13;8.63;;;;;;;17.26;100.00;100406.50;4992688;28;20050;-82
2021/07/26 00:44:48;;;;;;;10.50;8.15;;;;;;;17.25;100.00;100405.66;4971403;28;20051;-82
2021/07/26 00:47:13;;;;;;;12.10;8.38;;;;;;;17.19;100.00;100401.13;4992424;28;20056;-88
2021/07/26 00:49:39;;;;;;;10.35;8.85;;;;;;;17.20;100.00;100405.47;4992401;28;20077;-82
2021/07/26 00:52:05;;;;;;;12.07;8.80;;;;;;;17.18;100.00;100404.88;4984744;28;20429;-82
2021/07/26 00:54:34;;;;;;;11.80;8.15;;;;;;;17.17;100.00;100397.78;4992088;28;20042;-82
2021/07/26 00:57:03;;;;;;;11.30;8.75;;;;;;;17.19;100.00;100394.88;4986331;28;20062;-82
2021/07/26 00:59:28;;;;;;;10.93;8.40;;;;;;;17.21;100.00;100395.50;4984990;28;20050;-83
2021/07/26 01:01:54;;;;;;;14.32;8.98;;;;;;;17.13;100.00;100400.09;4992452;28;20042;-82
2021/07/26 01:04:20;;;;;;;12.43;8.70;;;;;;;17.07;100.00;100397.44;4992140;28;20057;-84
2021/07/26 01:06:46;;;;;;;11.30;9.52;;;;;;;17.04;100.00;100403.28;4984292;28;20465;-81
2021/07/26 01:09:12;;;;;;;11.68;9.38;;;;;;;16.99;100.00;100401.22;4975090;28;20477;-82
2021/07/26 01:11:38;;;;;;;11.45;8.68;;;;;;;16.98;100.00;100399.56;4989107;28;20046;-82
2021/07/26 01:14:03;;;;;;;10.65;8.85;;;;;;;16.99;100.00;100405.81;4967613;28;20057;-82
2021/07/26 01:16:29;;;;;;;11.60;9.13;;;;;;;16.99;100.00;100413.94;4999863;28;20060;-82
2021/07/26 01:18:55;;;;;;;10.52;8.48;;;;;;;16.92;100.00;100408.56;4995594;28;20038;-82
2021/07/26 01:21:21;;;;;;;10.30;8.80;;;;;;;16.89;100.00;100407.13;4994273;28;20045;-90
2021/07/26 01:23:51;;;;;;;11.13;8.48;;;;;;;16.88;100.00;100410.84;4984786;28;20081;-84
2021/07/26 01:26:21;;;;;;;11.27;8.45;;;;;;;16.83;100.00;100416.09;4989317;28;20053;-82
2021/07/26 01:28:53;;;;;;;10.95;8.40;;;;;;;16.84;100.00;100415.03;4995532;28;20132;-82
2021/07/26 01:31:19;;;;;;;11.13;8.60;;;;;;;16.83;100.00;100410.69;4996265;28;20057;-83
2021/07/26 01:33:46;;;;;;;14.15;8.63;;;;;;;16.83;100.00;100416.09;4995000;28;20059;-82
2021/07/26 01:36:12;;;;;;;9.70;8.70;;;;;;;16.81;100.00;100409.22;4991853;28;20105;-82
2021/07/26 01:39:02;;;;;;;11.10;8.95;;;;;;;16.79;100.00;100412.16;4994940;28;20129;-82
2021/07/26 01:41:48;;;;;;;10.13;8.73;;;;;;;16.79;100.00;100417.56;4987392;28;20045;-82
2021/07/26 01:44:37;;;;;;;10.15;8.80;;;;;;;16.78;100.00;100410.50;4951474;28;20046;-82
2021/07/26 01:47:08;;;;;;;10.25;8.70;;;;;;;16.78;100.00;100415.91;4971628;28;20117;-83
2021/07/26 01:49:50;;;;;;;12.20;9.45;;;;;;;16.77;100.00;100416.09;4960909;28;20445;-82
2021/07/26 01:52:17;;;;;;;12.98;9.00;;;;;;;16.77;100.00;100419.66;4971608;28;20500;-92
2021/07/26 01:54:43;;;;;;;12.45;9.88;;;;;;;16.78;100.00;100413.19;4969670;28;20046;-82
2021/07/26 01:57:10;;;;;;;10.57;8.57;;;;;;;16.75;100.00;100415.47;4970430;28;20105;-83
2021/07/26 01:59:36;;;;;;;13.05;9.25;;;;;;;16.74;100.00;100420.03;4967559;28;20130;-84
2021/07/26 02:02:02;;;;;;;13.07;9.23;;;;;;;16.74;100.00;100419.22;4953376;28;20387;-84
2021/07/26 02:04:29;;;;;;;11.88;8.95;;;;;;;16.72;100.00;100422.16;4970009;28;20050;-92
2021/07/26 02:06:54;;;;;;;14.27;10.20;;;;;;;16.75;100.00;100420.91;4969481;28;20050;-83
2021/07/26 02:09:20;;;;;;;13.65;10.48;;;;;;;16.77;100.00;100424.25;4967114;28;20047;-84
2021/07/26 02:11:51;;;;;;;12.25;9.93;;;;;;;16.75;100.00;100421.72;4966965;28;20082;-85
2021/07/26 02:14:17;;;;;;;11.57;9.98;;;;;;;16.75;100.00;100420.91;4969645;28;20054;-87
2021/07/26 02:16:50;;;;;;;12.63;9.40;;;;;;;16.76;100.00;100428.84;4966872;28;20093;-87
2021/07/26 02:19:16;;;;;;;11.75;10.45;;;;;;;16.80;100.00;100438.22;4966076;28;20230;-86
2021/07/26 02:21:41;;;;;;;13.77;10.20;;;;;;;16.85;100.00;100442.97;4968063;28;20058;-83
2021/07/26 02:24:07;;;;;;;13.55;10.68;;;;;;;16.90;100.00;100445.88;4968639;28;20063;-84
2021/07/26 02:26:36;;;;;;;12.95;10.70;;;;;;;16.97;100.00;100446.66;4966750;28;20043;-92
2021/07/26 02:29:02;;;;;;;14.50;10.90;;;;;;;17.00;100.00;100451.66;4965737;28;20149;-82
2021/07/26 02:31:27;;;;;;;13.60;11.15;;;;;;;17.02;100.00;100438.72;4964226;28;20565;-82
2021/07/26 02:33:54;;;;;;;16.27;10.90;;;;;;;17.07;100.00;100432.69;4960958;28;20047;-84
2021/07/26 02:36:19;;;;;;;14.57;11.13;;;;;;;17.19;100.00;100432.81;4963611;28;20059;-83
2021/07/26 02:38:44;;;;;;;15.82;10.85;;;;;;;17.29;100.00;100431.31;4963416;28;20101;-84
2021/07/26 02:41:12;;;;;;;14.85;10.43;;;;;;;17.34;100.00;100428.75;4950293;28;20050;-85
2021/07/26 02:43:38;;;;;;;13.98;9.98;;;;;;;17.36;99.40;100429.38;4966197;28;20057;-84
2021/07/26 02:46:06;;;;;;;14.45;10.05;;;;;;;17.42;99.32;100424.97;4954574;28;20058;-83
2021/07/26 02:48:33;;;;;;;14.48;10.27;;;;;;;17.40;99.40;100428.94;4977239;28;20050;-83
2021/07/26 02:50:59;;;;;;;13.80;9.98;;;;;;;17.43;98.92;100439.38;4984928;28;20609;-86
2021/07/26 02:53:24;;;;;;;12.98;10.15;;;;;;;17.44;98.55;100443.75;4984965;28;20856;-87
2021/07/26 02:55:52;;;;;;;14.07;10.15;;;;;;;17.46;98.72;100444.34;4983215;28;20055;-83
2021/07/26 02:58:17;;;;;;;12.95;9.90;;;;;;;17.50;98.67;100445.59;4968625;28;20403;-86
2021/07/26 03:00:46;;;;;;;11.48;9.80;;;;;;;17.55;98.20;100440.31;4986397;28;20100;-84
2021/07/26 03:03:13;;;;;;;14.18;10.13;;;;;;;17.57;97.99;100440.94;4985653;28;20077;-83
2021/07/26 03:05:40;;;;;;;13.75;9.93;;;;;;;17.58;97.75;100439.91;4984808;28;20062;-83
2021/07/26 03:08:07;;;;;;;12.45;9.65;;;;;;;17.58;97.60;100439.91;4986706;28;20046;-83
2021/07/26 03:10:33;;;;;;;21.48;11.10;;;;;;;17.58;97.86;100448.06;4982022;28;20673;-82
2021/07/26 03:12:59;;;;;;;13.27;10.05;;;;;;;17.51;97.57;100444.53;4985678;28;20121;-91
2021/07/26 03:15:26;;;;;;;14.48;10.35;;;;;;;17.50;97.69;100440.16;4985888;28;20325;-83
2021/07/26 03:17:52;;;;;;;14.65;10.48;;;;;;;17.45;98.07;100448.13;4980770;28;20777;-83
2021/07/26 03:20:17;;;;;;;14.80;11.35;;;;;;;17.43;98.25;100450.22;4984222;28;20050;-87
2021/07/26 03:22:58;;;;;;;15.35;11.50;;;;;;;17.38;98.86;100453.59;4984205;28;20057;-84
2021/07/26 03:25:24;;;;;;;16.38;11.50;;;;;;;17.32;98.76;100455.28;4984351;28;20050;-83
2021/07/26 03:27:49;;;;;;;16.75;12.65;;;;;;;17.32;98.79;100459.84;4984847;28;20132;-82
2021/07/26 03:30:17;;;;;;;15.48;11.32;;;;;;;17.32;99.43;100458.00;4984839;28;20076;-83
2021/07/26 03:32:43;;;;;;;15.38;11.63;;;;;;;17.29;99.37;100452.16;4963403;28;20038;-83
2021/07/26 03:35:11;;;;;;;16.70;11.82;;;;;;;17.27;98.79;100451.56;4964493;28;20500;-87
2021/07/26 03:37:38;;;;;;;16.80;11.60;;;;;;;17.25;99.14;100465.31;4984573;28;20105;-86
2021/07/26 03:40:05;;;;;;;16.65;11.77;;;;;;;17.22;99.50;100457.63;4984372;28;20070;-86
2021/07/26 03:42:34;;;;;;;15.18;12.13;;;;;;;17.19;99.81;100471.63;4983314;28;20096;-83
2021/07/26 03:45:02;;;;;;;16.25;11.65;;;;;;;17.18;99.50;100469.97;4980175;28;20433;-88
2021/07/26 03:47:27;;;;;;;15.25;11.85;;;;;;;17.18;99.88;100477.28;4984307;28;20046;-84
2021/07/26 03:49:53;;;;;;;15.77;11.90;;;;;;;17.15;100.00;100473.09;4986343;28;20092;-84
2021/07/26 03:52:18;;;;;;;16.13;12.27;;;;;;;17.12;99.92;100470.81;4966048;28;20109;-87
2021/07/26 03:54:44;;;;;;;16.20;12.73;;;;;;;17.12;99.90;100476.25;4985004;28;20067;-84
2021/07/26 03:57:09;;;;;;;15.75;12.65;;;;;;;17.11;100.00;100474.56;4985017;28;20054;-86
2021/07/26 03:59:36;;;;;;;16.85;12.27;;;;;;;17.08;100.00;100481.25;4984885;28;20074;-87
2021/07/26 04:02:02;;;;;;;15.65;12.13;;;;;;;17.08;100.00;100475.81;4959426;28;20055;-85
2021/07/26 04:04:27;;;;;;;15.60;11.73;;;;;;;17.07;100.00;100471.47;4983270;28;20057;-86
2021/07/26 04:06:58;;;;;;;16.20;11.93;;;;;;;17.10;100.00;100475.63;4981273;28;20042;-86
2021/07/26 04:09:26;;;;;;;17.27;11.57;;;;;;;17.09;100.00;100472.09;4982495;28;20086;-85
2021/07/26 04:11:59;;;;;;;16.55;11.57;;;;;;;17.07;100.00;100476.06;4969405;28;20069;-88
2021/07/26 04:14:28;;;;;;;14.60;11.07;;;;;;;17.06;100.00;100477.94;4958322;28;20141;-88
2021/07/26 04:16:54;;;;;;;16.23;12.18;;;;;;;17.07;100.00;100479.59;4966976;28;20058;-85
2021/07/26 04:19:19;;;;;;;15.30;11.35;;;;;;;17.06;100.00;100482.50;4982287;28;20176;-89
2021/07/26 04:21:45;;;;;;;14.40;11.85;;;;;;;17.09;100.00;100484.78;4983883;28;20634;-85
2021/07/26 04:24:10;;;;;;;15.40;11.45;;;;;;;17.09;100.00;100485.63;4983485;28;20493;-85
2021/07/26 04:26:36;;;;;;;15.80;11.25;;;;;;;17.09;100.00;100484.78;4983762;28;20117;-84
2021/07/26 04:29:01;;;;;;;16.48;11.63;;;;;;;17.09;100.00;100482.94;4983386;28;20054;-85
2021/07/26 04:31:26;;;;;;;16.52;11.43;;;;;;;17.09;100.00;100477.50;4982725;28;20070;-85
2021/07/26 04:33:52;;;;;;;16.40;10.85;;;;;;;17.12;100.00;100487.09;4981461;28;20141;-84
2021/07/26 04:36:17;;;;;;;13.98;10.60;;;;;;;17.13;100.00;100489.56;4983672;28;20057;-87
2021/07/26 04:38:43;;;;;;;15.07;10.23;;;;;;;17.16;100.00;100482.88;4982657;28;20555;-85
2021/07/26 04:41:08;;;;;;;18.38;10.45;;;;;;;17.21;99.65;100483.09;4983556;28;20070;-87
2021/07/26 04:43:35;;;;;;;13.57;9.93;;;;;;;17.23;99.78;100478.25;4979974;28;20219;-92
2021/07/26 04:46:01;;;;;;;13.57;10.15;;;;;;;17.26;99.25;100486.00;4980088;28;20077;-87
2021/07/26 04:48:28;;;;;;;15.38;9.63;;;;;;;17.26;100.00;100488.69;4983853;28;20602;-85
2021/07/26 04:50:53;;;;;;;12.85;9.93;;;;;;;17.29;99.22;100490.97;4981786;28;20061;-84
2021/07/26 04:53:19;;;;;;;14.95;11.18;;;;;;;17.34;99.30;100491.13;4983363;28;20545;-89
2021/07/26 04:55:44;;;;;;;13.15;9.10;;;;;;;17.37;99.37;100487.16;4982739;28;20050;-85
2021/07/26 04:58:10;;;;;;;11.27;8.82;;;;;;;17.44;98.55;100490.69;4980681;28;20088;-89
2021/07/26 05:00:35;;;;;;;12.23;8.70;;;;;;;17.49;97.73;100490.03;4983213;28;20046;-84
2021/07/26 05:03:09;;;;;;;16.02;9.60;;;;;;;17.52;98.80;100492.31;4983137;28;20049;-86
2021/07/26 05:05:36;;;;;;;13.93;9.52;;;;;;;17.62;97.60;100498.09;4983348;28;20146;-84
2021/07/26 05:08:01;;;;;;;12.40;8.52;;;;;;;17.67;97.81;100487.44;4984301;28;20101;-88
2021/07/26 05:10:27;;;;;;;15.82;8.73;;;;;;;17.73;97.23;100493.88;4965684;28;20058;-84
2021/07/26 05:12:53;;;;;;;12.48;7.93;;;;;;;17.80;98.00;100498.22;4984154;28;20042;-84
2021/07/26 05:15:19;;;;;;;12.45;8.02;;;;;;;17.80;97.95;100490.06;4983343;28;20050;-87
2021/07/26 05:17:44;;;;;;;15.70;8.45;;;;;;;17.84;97.63;100495.91;4983837;28;20755;-87
2021/07/26 05:20:10;;;;;;;13.68;7.90;;;;;;;17.93;96.57;100500.03;4966858;28;20123;-89
2021/07/26 05:22:38;;;;;;;9.98;7.97;;;;;;;17.96;96.82;100496.03;4981102;28;20112;-83
2021/07/26 05:25:04;;;;;;;11.77;7.97;;;;;;;18.04;96.06;100493.88;4966706;28;20105;-84
2021/07/26 05:27:29;;;;;;;13.63;8.38;;;;;;;18.07;96.95;100495.34;4979638;28;20558;-84
2021/07/26 05:29:57;;;;;;;12.98;7.88;;;;;;;18.11;97.11;100495.72;4979278;28;20046;-84
2021/07/26 05:32:22;;;;;;;12.73;7.95;;;;;;;18.15;95.55;100499.63;4985748;28;20101;-87
2021/07/26 05:34:49;;;;;;;10.90;7.78;;;;;;;18.23;95.45;100505.63;4979952;28;20051;-84
2021/07/26 05:37:16;;;;;;;12.50;7.38;;;;;;;18.29;95.30;100500.38;4984917;28;20101;-83
2021/07/26 05:39:48;;;;;;;10.25;7.05;;;;;;;18.31;96.15;100501.81;4983915;28;20046;-84
2021/07/26 05:42:16;;;;;;;13.57;7.53;;;;;;;18.34;95.24;100503.25;4999932;28;20408;-86
2021/07/26 05:44:44;;;;;;;11.23;6.97;;;;;;;18.38;95.38;100507.19;4980806;28;20051;-83
2021/07/26 05:47:10;;;;;;;10.00;7.40;;;;;;;18.43;94.97;100504.63;4982302;28;20046;-84
2021/07/26 05:49:44;;;;;;;12.85;7.80;;;;;;;18.47;95.03;100497.69;4983669;28;20058;-84
2021/07/26 05:52:13;;;;;;;10.35;7.40;;;;;;;18.47;95.36;100498.53;4984042;28;20046;-84
2021/07/26 05:54:40;;;;;;;12.40;7.65;;;;;;;18.50;95.00;100499.97;4981573;28;20053;-84
2021/07/26 05:57:13;;;;;;;11.43;7.57;;;;;;;18.57;94.61;100495.31;4982621;28;20471;-83
2021/07/26 05:59:40;;;;;;;12.35;6.72;;;;;;;18.63;94.91;100497.13;4971662;28;20105;-83
2021/07/26 06:02:05;;;;;;;11.68;7.05;;;;;;;18.68;94.89;100499.16;4984441;28;20130;-89
2021/07/26 06:04:31;;;;;;;11.07;7.60;;;;;;;18.75;93.73;100507.28;4983736;28;20058;-84
2021/07/26 06:06:58;;;;;;;11.63;7.57;;;;;;;18.78;93.75;100495.97;4964640;28;20054;-84
2021/07/26 06:09:24;;;;;;;8.25;6.30;;;;;;;18.84;93.71;100497.75;4988340;28;20069;-84
2021/07/26 06:11:51;;;;;;;9.93;7.50;;;;;;;18.89;93.42;100495.22;4987185;28;20074;-89
2021/07/26 06:14:19;;;;;;;12.77;7.30;;;;;;;18.97;92.61;100489.47;4987895;28;20480;-84
2021/07/26 06:16:52;;;;;;;11.48;6.03;;;;;;;19.04;92.04;100484.78;4983359;28;20042;-85
2021/07/26 06:19:20;;;;;;;10.30;6.43;;;;;;;19.10;91.73;100481.16;4982194;28;22744;-85
2021/07/26 06:21:57;;;;;;;10.13;6.25;;;;;;;19.12;91.87;100484.47;4985332;28;20066;-85
2021/07/26 06:24:23;;;;;;;8.75;5.72;;;;;;;19.15;92.29;100480.47;4980420;28;20046;-89
2021/07/26 06:26:52;;;;;;;9.18;6.20;;;;;;;19.19;92.07;100486.28;4984138;28;20046;-85
2021/07/26 06:29:19;;;;;;;9.52;5.68;;;;;;;19.26;90.53;100487.03;4986644;28;20788;-85
2021/07/26 06:31:46;;;;;;;10.30;5.72;;;;;;;19.28;90.65;100491.19;4989613;28;20057;-85
2021/07/26 06:34:12;;;;;;;9.80;6.15;;;;;;;19.35;90.20;100491.91;4989757;28;20042;-85
2021/07/26 06:36:39;;;;;;;9.25;6.28;;;;;;;19.41;90.99;100492.91;4983205;28;20050;-92
2021/07/26 06:39:05;;;;;;;9.48;6.28;;;;;;;19.45;90.70;100495.97;4989743;28;20560;-86
2021/07/26 06:41:31;;;;;;;11.00;6.45;;;;;;;19.48;89.99;100484.63;4976853;28;20129;-85
2021/07/26 06:43:56;;;;;;;8.63;6.43;;;;;;;19.54;88.84;100481.00;4972052;28;20047;-84
2021/07/26 06:46:21;;;;;;;8.88;6.60;;;;;;;19.65;89.40;100484.81;4971460;28;20054;-85
2021/07/26 06:48:47;;;;;;;11.20;5.88;;;;;;;19.77;88.46;100485.75;4972644;28;20482;-85
2021/07/26 06:51:13;;;;;;;9.10;5.57;;;;;;;19.85;88.29;100490.81;4972644;28;20057;-83
2021/07/26 06:53:39;;;;;;;6.82;5.05;;;;;;;19.94;88.00;100489.44;4973620;28;20043;-87
2021/07/26 06:56:15;;;;;;;8.93;4.80;;;;;;;20.11;86.20;100491.47;4971813;28;20059;-84
2021/07/26 06:58:47;;;;;;;8.23;4.50;;;;;;;20.21;85.47;100489.84;4972879;28;20125;-83
2021/07/26 07:01:17;;;;;;;8.10;4.68;;;;;;;20.30;85.54;100495.78;4977735;28;20069;-84
2021/07/26 07:03:45;;;;;;;8.30;4.43;;;;;;;20.34;84.27;100496.13;4975962;28;20051;-85
2021/07/26 07:06:15;;;;;;;6.57;4.25;;;;;;;20.36;83.92;100494.81;4974512;28;20054;-84
2021/07/26 07:08:50;;;;;;;8.48;3.95;;;;;;;20.43;83.61;100498.28;4948277;28;20078;-87
2021/07/26 07:11:18;;;;;;;8.90;4.40;;;;;;;20.50;82.85;100493.53;4968880;28;20477;-83
2021/07/26 07:13:45;;;;;;;6.70;4.25;;;;;;;20.53;82.31;100505.06;4950546;28;20047;-85
2021/07/26 07:16:17;;;;;;;6.68;4.70;;;;;;;20.60;81.95;100508.47;4965612;28;20050;-84
2021/07/26 07:18:42;;;;;;;8.75;4.28;;;;;;;20.67;81.86;100507.31;4992679;28;20414;-85
2021/07/26 07:21:24;;;;;;;7.75;5.20;;;;;;;20.71;82.45;100503.06;4992698;28;20046;-85
2021/07/26 07:23:51;;;;;;;8.10;4.75;;;;;;;20.78;82.52;100513.00;4988865;28;20500;-87
2021/07/26 07:26:26;;;;;;;6.57;4.18;;;;;;;20.82;82.20;100508.72;4993702;28;20051;-84
2021/07/26 07:28:52;;;;;;;7.40;4.63;;;;;;;20.83;82.55;100516.69;4974404;28;20054;-84
2021/07/26 07:31:37;;;;;;;8.27;4.78;;;;;;;20.84;82.15;100507.41;4992865;28;20042;-84
2021/07/26 07:34:12;;;;;;;7.68;5.32;;;;;;;20.89;81.88;100498.53;4987871;28;20054;-84
2021/07/26 07:36:58;;;;;;;8.38;5.70;;;;;;;21.00;81.67;100491.38;4991479;28;20046;-84
2021/07/26 07:39:55;;;;;;;9.90;5.30;;;;;;;21.00;81.72;100503.09;4975629;28;20391;-83
2021/07/26 07:42:40;;;;;;;9.32;5.30;;;;;;;20.89;81.94;100506.72;5000797;28;20413;-87
2021/07/26 07:45:16;;;;;;;9.63;6.00;;;;;;;20.82;82.75;100501.38;4969253;28;20176;-83
2021/07/26 07:47:58;;;;;;;11.57;5.85;;;;;;;20.90;82.76;100502.91;4954590;28;20075;-83
2021/07/26 07:50:24;;;;;;;9.40;5.75;;;;;;;21.05;82.36;100505.13;4981495;28;20049;-85
2021/07/26 07:52:50;;;;;;;7.75;5.53;;;;;;;21.05;81.47;100505.13;4988948;28;20081;-86
2021/07/26 07:55:49;;;;;;;8.50;5.30;;;;;;;20.95;80.99;100505.75;4989585;28;20073;-83
2021/07/26 07:58:15;;;;;;;7.53;5.53;;;;;;;20.99;81.68;100508.81;4994658;28;20054;-83
2021/07/26 08:00:41;;;;;;;7.85;5.28;;;;;;;21.00;81.83;100507.75;4991259;28;20042;-85
2021/07/26 08:03:49;;;;;;;8.75;5.25;;;;;;;21.05;81.84;100511.41;4984885;28;20134;-83
2021/07/26 08:09:38;;;;;;;6.57;4.00;;;;;;;21.40;81.39;100507.78;4984561;28;20090;-84
2021/07/26 08:12:33;;;;;;;9.95;3.92;;;;;;;21.34;80.17;100523.19;4950992;28;20394;-83
2021/07/26 08:15:03;;;;;;;5.07;3.67;;;;;;;21.34;80.21;100516.91;4972595;28;20057;-85
2021/07/26 08:18:03;;;;;;;7.43;3.60;;;;;;;21.34;79.32;100504.09;4992151;28;20050;-83
2021/07/26 08:20:32;;;;;;;4.70;3.13;;;;;;;21.37;79.87;100514.56;4971812;28;20141;-85
2021/07/26 08:23:03;;;;;;;7.35;3.58;;;;;;;21.36;79.29;100525.69;4987655;28;20061;-83
2021/07/26 08:25:52;;;;;;;6.38;3.83;;;;;;;21.36;79.33;100517.50;4985099;28;20050;-83
2021/07/26 08:28:18;;;;;;;7.47;3.75;;;;;;;21.55;79.94;100515.44;4973276;28;20134;-83
2021/07/26 08:31:12;;;;;;;8.63;3.80;;;;;;;21.60;78.51;100521.00;4992105;28;20097;-83
2021/07/26 08:37:08;;;;;;;6.22;3.30;;;;;;;;;;5001152;28;20103;-83
2021/07/26 08:46:15;;;;;;;5.13;3.50;;;;;;;21.81;77.76;100542.19;4986907;28;20069;-84
2021/07/26 08:48:50;;;;;;;4.40;2.90;;;;;;;21.78;76.50;100531.75;4989035;28;20073;-83
2021/07/26 08:51:20;;;;;;;7.13;3.53;;;;;;;21.70;77.04;100545.78;4975542;28;20477;-83
2021/07/26 08:53:51;;;;;;;4.47;3.15;;;;;;;21.78;76.79;100544.53;4991881;28;20058;-83
2021/07/26 08:57:11;;;;;;;5.95;3.40;;;;;;;21.70;77.06;100547.69;4973320;28;20051;-83
2021/07/26 08:59:37;;;;;;;5.18;3.00;;;;;;;21.68;76.79;100553.38;4973648;28;20047;-83
2021/07/26 09:02:03;;;;;;;8.38;3.20;;;;;;;21.65;77.62;100556.59;4993118;28;20061;-83
2021/07/26 09:04:29;;;;;;;6.03;3.22;;;;;;;21.66;77.51;100554.69;4993073;28;20097;-83
2021/07/26 09:06:55;;;;;;;5.53;3.10;;;;;;;21.78;75.51;100558.19;4991885;28;20053;-83
2021/07/26 09:09:41;;;;;;;4.18;2.55;;;;;;;21.91;74.35;100559.81;4992790;28;20050;-83
2021/07/26 09:12:07;;;;;;;4.95;2.65;;;;;;;22.08;73.50;100563.41;4977596;28;20050;-83
2021/07/26 09:14:38;;;;;;;5.10;2.65;;;;;;;22.20;73.30;100557.91;4992102;28;20397;-83
2021/07/26 09:17:03;;;;;;;5.93;3.25;;;;;;;22.34;73.80;100552.97;4975395;28;20046;-84
2021/07/26 09:19:59;;;;;;;5.25;2.50;;;;;;;22.41;71.21;100567.28;4985227;28;20044;-84
2021/07/26 09:22:45;;;;;;;4.95;2.83;;;;;;;22.58;73.51;100573.56;4978666;28;20134;-83
2021/07/26 09:25:23;;;;;;;4.00;3.33;;;;;;;22.65;73.61;100573.41;4974575;28;20489;-83
2021/07/26 09:28:11;;;;;;;5.88;3.47;;;;;;;22.50;72.99;100579.47;4977620;28;20054;-84
2021/07/26 09:30:56;;;;;;;6.20;3.50;;;;;;;22.40;72.89;100573.81;4966762;28;20051;-83
2021/07/26 09:33:31;;;;;;;5.70;3.22;;;;;;;22.30;74.44;100578.06;4953882;28;20129;-86
2021/07/26 09:36:13;;;;;;;6.60;3.80;;;;;;;22.22;73.21;100581.19;4975736;28;20078;-84
2021/07/26 09:38:44;;;;;;;5.25;2.95;;;;;;;22.20;73.41;100580.59;4966143;28;20047;-84
2021/07/26 09:41:11;;;;;;;3.78;2.42;;;;;;;22.15;72.38;100583.19;4971978;28;20051;-85
2021/07/26 09:43:38;;;;;;;4.10;2.42;;;;;;;22.17;72.67;100572.88;4987069;28;20053;-83
2021/07/26 09:46:25;;;;;;;3.78;2.65;;;;;;;22.42;71.94;100585.34;4980277;28;20046;-84
2021/07/26 09:49:16;;;;;;;3.92;2.72;;;;;;;22.52;70.88;100586.31;4985025;28;20038;-83
2021/07/26 09:51:43;;;;;;;4.65;2.50;;;;;;;22.55;73.09;100590.47;4989160;28;20054;-85
2021/07/26 09:54:09;;;;;;;4.57;2.60;;;;;;;22.38;70.96;100593.19;4990038;28;20046;-90
2021/07/26 09:56:43;;;;;;;5.07;3.22;;;;;;;22.21;71.59;100595.94;4990477;28;20073;-84
2021/07/26 09:59:22;;;;;;;4.68;2.80;;;;;;;22.26;73.71;100587.81;4983595;28;20109;-84
2021/07/26 10:01:47;;;;;;;3.75;2.35;;;;;;;22.13;71.92;100599.03;4987298;28;20057;-84
2021/07/26 10:04:13;;;;;;;3.90;2.70;;;;;;;21.97;71.74;100588.88;4988441;28;20472;-83
2021/07/26 10:06:41;;;;;;;4.00;2.80;;;;;;;22.08;72.85;100596.19;4980491;28;20505;-86
2021/07/26 10:09:14;;;;;;;4.05;2.80;;;;;;;22.13;73.25;100599.03;4983144;28;20710;-85
2021/07/26 10:11:39;;;;;;;4.30;2.88;;;;;;;22.22;73.32;100592.13;4989532;28;20482;-85
2021/07/26 10:14:05;;;;;;;4.93;2.80;;;;;;;22.29;73.49;100594.69;4984435;28;20057;-84
2021/07/26 10:16:31;;;;;;;4.93;2.65;;;;;;;22.26;72.38;100598.72;4989744;28;20137;-87
2021/07/26 10:18:58;;;;;;;4.38;3.17;;;;;;;22.36;73.17;100580.88;4988879;28;20069;-84
2021/07/26 10:21:26;;;;;;;6.30;3.10;;;;;;;22.33;71.97;100584.09;4978436;28;20589;-83
2021/07/26 10:24:01;;;;;;;;;;;;;;;22.34;71.10;100585.75;4989671;28;20071;-84
2021/07/26 10:26:58;;;;;;;4.63;3.08;;;;;;;22.26;71.15;100576.88;4980953;28;19917;-92
2021/07/26 10:29:43;;;;;;;5.57;3.40;;;;;;;22.20;71.27;100587.97;4976496;28;20085;-87
2021/07/26 10:32:42;;;;;;;5.30;2.70;;;;;;;22.30;70.72;100578.06;4987955;28;20058;-83
2021/07/26 10:35:32;;;;;;;4.03;2.97;;;;;;;22.44;69.01;100577.72;4970352;28;20115;-85
2021/07/26 10:38:09;;;;;;;3.92;2.90;;;;;;;22.52;69.35;100571.84;4970808;28;20062;-83
2021/07/26 10:40:44;;;;;;;4.65;3.25;;;;;;;22.60;69.02;100576.91;4962331;28;20555;-83
2021/07/26 10:43:13;;;;;;;6.10;3.03;;;;;;;22.62;68.72;100571.19;4985760;28;20064;-90
2021/07/26 10:45:50;;;;;;;6.10;3.10;;;;;;;22.78;67.93;100583.19;4987327;28;20058;-84
2021/07/26 10:48:20;;;;;;;5.75;2.88;;;;;;;22.90;65.97;100571.06;4973814;28;20057;-84
2021/07/26 10:50:47;;;;;;;3.83;2.72;;;;;;;22.95;66.37;100568.41;5001838;28;20477;-91
2021/07/26 10:53:35;;;;;;;4.60;3.10;;;;;;;23.08;66.23;100570.00;4986683;28;20049;-84
2021/07/26 10:56:06;;;;;;;4.78;2.90;;;;;;;23.19;67.01;100566.31;4985466;28;20073;-83
2021/07/26 10:58:38;;;;;;;4.78;2.90;;;;;;;23.25;65.77;100563.63;4984242;28;20440;-92
2021/07/26 11:01:20;;;;;;;6.10;3.47;;;;;;;23.39;66.33;100551.19;4985825;28;20685;-83
2021/07/26 11:03:48;;;;;;;6.18;3.13;;;;;;;23.43;66.83;100568.78;4985762;28;20085;-87
2021/07/26 11:06:37;;;;;;;5.50;3.47;;;;;;;23.44;66.32;100564.97;4985217;28;20451;-93
2021/07/26 11:09:21;;;;;;;4.80;2.90;;;;;;;23.48;64.90;100555.19;4981307;28;20406;-84
2021/07/26 11:11:49;;;;;;;5.93;3.00;;;;;;;23.67;65.88;100563.88;4976479;28;20050;-92
2021/07/26 11:14:15;;;;;;;4.90;2.85;;;;;;;23.76;64.52;100556.03;4990471;28;20055;-84
2021/07/26 11:16:56;;;;;;;4.72;2.72;;;;;;;23.72;63.50;100563.97;4990462;28;20050;-84
2021/07/26 11:19:41;;;;;;;4.78;3.08;;;;;;;23.73;64.63;100551.91;4982469;28;20058;-92
2021/07/26 11:22:16;;;;;;;4.70;2.90;;;;;;;23.63;64.43;100560.81;4982053;28;20101;-85
2021/07/26 11:24:41;;;;;;;5.43;3.13;;;;;;;23.57;64.07;100552.81;4985505;28;20054;-84
2021/07/26 11:27:08;;;;;;;5.75;2.88;;;;;;;23.33;65.29;100557.69;4976088;28;20058;-93
2021/07/26 11:29:34;;;;;;;6.68;2.53;;;;;;;23.42;63.28;100553.47;4985885;28;20065;-84
2021/07/26 11:32:00;;;;;;;4.70;2.83;;;;;;;23.45;63.83;100555.69;4984698;28;20050;-83
2021/07/26 11:34:36;;;;;;;3.42;2.63;;;;;;;23.41;63.34;100544.41;4986638;28;20078;-85
2021/07/26 11:37:04;;;;;;;6.03;3.40;;;;;;;23.44;63.47;100540.31;4985596;28;20046;-83
2021/07/26 11:39:54;;;;;;;4.43;2.80;;;;;;;23.34;62.29;100542.94;4965148;28;20054;-84
2021/07/26 11:42:25;;;;;;;5.35;2.92;;;;;;;23.50;63.96;100541.22;4977107;28;20397;-83
2021/07/26 11:44:52;;;;;;;6.97;2.67;;;;;;;23.54;62.66;100537.72;4951775;28;20039;-93